Rialma, Brazil
Current Conditions -  °F | °C
As of 7:00 PM on Saturday 22 Nov 2014 (Local Time) from SBAN Reporting Station
Broken Clouds Broken Clouds  
Wind Chill: 72°   Ceiling: 8000
Heat Index: 72°   Visibility: 6mi
Dew Point: 66°   Wind: 2mph
Humidity: 83%   Direction: 50°NE
Pressure: 30"   Gusts: NA
Location:  15.32°S, 49.58°W
Report Text: SBAN 222100Z 05002KT 9999 FEW014 SCT020 BKN080 22/19 Q1016
Loading
Personal Weather Stations






























Interactive Weather Map New forecast layout! Learn more

10-Day Weather Forecast

Advertisements
Track Severe Weather on mobile